Agness, Oregon
Current Conditions -  °F | °C
As of 5:56 AM on Thursday 30 Oct 2014 (Local Time) from KBOK Reporting Station
Light Rain Light Rain  
Wind Chill: 60°   Ceiling: 300
Heat Index: 60°   Visibility: 1.2mi
Dew Point: 60°   Wind: 6mph
Humidity: 100%   Direction: 140°SE
Pressure: 29.93"   Gusts: NA
Location:  42.56°N, 124.07°W
Report Text: KBOK 301256Z AUTO 14005KT 1 1/4SM -RA BR BKN003 OVC008 16/16 A2993 RMK AO2 T01550155 BKN V OVC RAB06 P0002 SLP136
Loading
Personal Weather Stations






























Interactive Weather Map
Tropical Storm Tracking
New forecast layout! Learn more

10-Day Weather Forecast

Advertisements
Track Severe Weather on mobile